sensor_id;sensor_type;location;lat;lon;timestamp;pressure;altitude;pressure_sealevel;temperature;humidity
60371;BME280;48550;40.588;49.684;2023-08-31T00:00:45;101532.38;;;21.21;100.00
60371;BME280;48550;40.588;49.684;2023-08-31T00:03:12;101534.56;;;21.19;100.00
60371;BME280;48550;40.588;49.684;2023-08-31T00:05:42;101530.53;;;21.11;100.00
60371;BME280;48550;40.588;49.684;2023-08-31T00:08:09;101536.09;;;20.96;100.00
60371;BME280;48550;40.588;49.684;2023-08-31T00:10:37;101532.53;;;20.96;100.00
60371;BME280;48550;40.588;49.684;2023-08-31T00:13:03;101531.19;;;20.93;100.00
60371;BME280;48550;40.588;49.684;2023-08-31T00:15:30;101532.84;;;20.89;100.00
60371;BME280;48550;40.588;49.684;2023-08-31T00:17:59;101532.88;;;20.84;100.00
60371;BME280;48550;40.588;49.684;2023-08-31T00:20:25;101528.22;;;20.89;100.00
60371;BME280;48550;40.588;49.684;2023-08-31T00:22:52;101527.44;;;20.84;100.00
60371;BME280;48550;40.588;49.684;2023-08-31T00:25:18;101533.44;;;20.81;100.00
60371;BME280;48550;40.588;49.684;2023-08-31T00:27:43;101522.03;;;20.69;100.00
60371;BME280;48550;40.588;49.684;2023-08-31T00:30:14;101518.50;;;20.63;100.00
60371;BME280;48550;40.588;49.684;2023-08-31T00:32:41;101516.09;;;20.56;100.00
60371;BME280;48550;40.588;49.684;2023-08-31T00:35:08;101511.41;;;20.62;100.00
60371;BME280;48550;40.588;49.684;2023-08-31T00:37:34;101510.06;;;20.59;100.00
60371;BME280;48550;40.588;49.684;2023-08-31T00:40:00;101515.25;;;20.61;100.00
60371;BME280;48550;40.588;49.684;2023-08-31T00:42:26;101509.81;;;20.56;100.00
60371;BME280;48550;40.588;49.684;2023-08-31T00:44:54;101508.16;;;20.60;100.00
60371;BME280;48550;40.588;49.684;2023-08-31T00:47:20;101508.94;;;20.66;100.00
60371;BME280;48550;40.588;49.684;2023-08-31T00:49:47;101512.16;;;20.78;100.00
60371;BME280;48550;40.588;49.684;2023-08-31T00:52:13;101506.25;;;20.60;100.00
60371;BME280;48550;40.588;49.684;2023-08-31T00:54:39;101507.38;;;20.49;100.00
60371;BME280;48550;40.588;49.684;2023-08-31T00:57:04;101502.78;;;20.35;100.00
60371;BME280;48550;40.588;49.684;2023-08-31T00:59:30;101505.78;;;20.38;100.00
60371;BME280;48550;40.588;49.684;2023-08-31T01:02:01;101502.00;;;20.29;100.00
60371;BME280;48550;40.588;49.684;2023-08-31T01:13:18;101504.69;;;20.34;100.00
60371;BME280;48550;40.588;49.684;2023-08-31T01:15:55;101513.44;;;20.41;100.00
60371;BME280;48550;40.588;49.684;2023-08-31T01:18:25;101505.22;;;20.46;100.00
60371;BME280;48550;40.588;49.684;2023-08-31T01:23:21;101512.22;;;20.62;100.00
60371;BME280;48550;40.588;49.684;2023-08-31T01:25:52;101511.69;;;20.60;100.00
60371;BME280;48550;40.588;49.684;2023-08-31T01:28:18;101502.41;;;20.61;100.00
60371;BME280;48550;40.588;49.684;2023-08-31T01:30:44;101500.53;;;20.57;100.00
60371;BME280;48550;40.588;49.684;2023-08-31T01:33:10;101490.16;;;20.59;100.00
60371;BME280;48550;40.588;49.684;2023-08-31T01:35:48;101493.38;;;20.71;100.00
60371;BME280;48550;40.588;49.684;2023-08-31T01:38:21;101493.34;;;20.76;100.00
60371;BME280;48550;40.588;49.684;2023-08-31T01:41:00;101500.69;;;20.76;100.00
60371;BME280;48550;40.588;49.684;2023-08-31T01:43:27;101486.47;;;20.89;100.00
60371;BME280;48550;40.588;49.684;2023-08-31T01:45:53;101490.31;;;20.83;100.00
60371;BME280;48550;40.588;49.684;2023-08-31T01:48:20;101490.00;;;20.89;100.00
60371;BME280;48550;40.588;49.684;2023-08-31T01:50:46;101487.59;;;20.83;100.00
60371;BME280;48550;40.588;49.684;2023-08-31T01:53:12;101496.31;;;20.85;100.00
60371;BME280;48550;40.588;49.684;2023-08-31T01:55:38;101486.50;;;20.79;100.00
60371;BME280;48550;40.588;49.684;2023-08-31T01:58:04;101496.91;;;20.72;100.00
60371;BME280;48550;40.588;49.684;2023-08-31T02:00:29;101504.56;;;20.70;100.00
60371;BME280;48550;40.588;49.684;2023-08-31T02:03:00;101500.69;;;20.76;100.00
60371;BME280;48550;40.588;49.684;2023-08-31T02:05:26;101508.06;;;20.75;100.00
60371;BME280;48550;40.588;49.684;2023-08-31T02:07:52;101498.78;;;20.76;100.00
60371;BME280;48550;40.588;49.684;2023-08-31T02:10:17;101503.47;;;20.71;100.00
60371;BME280;48550;40.588;49.684;2023-08-31T02:12:43;101504.00;;;20.73;100.00
60371;BME280;48550;40.588;49.684;2023-08-31T02:15:09;101515.69;;;20.78;100.00
60371;BME280;48550;40.588;49.684;2023-08-31T02:17:35;101511.88;;;20.79;100.00
60371;BME280;48550;40.588;49.684;2023-08-31T02:20:01;101517.31;;;20.84;100.00
60371;BME280;48550;40.588;49.684;2023-08-31T02:22:34;101518.41;;;20.88;100.00
60371;BME280;48550;40.588;49.684;2023-08-31T02:25:00;101515.94;;;20.87;100.00
60371;BME280;48550;40.588;49.684;2023-08-31T02:27:29;101508.53;;;20.92;100.00
60371;BME280;48550;40.588;49.684;2023-08-31T02:29:54;101515.53;;;21.48;100.00
60371;BME280;48550;40.588;49.684;2023-08-31T02:32:20;101508.38;;;21.52;100.00
60371;BME280;48550;40.588;49.684;2023-08-31T02:34:46;101510.69;;;21.40;100.00
60371;BME280;48550;40.588;49.684;2023-08-31T02:37:12;101512.06;;;21.37;100.00
60371;BME280;48550;40.588;49.684;2023-08-31T02:39:37;101514.03;;;21.66;100.00
60371;BME280;48550;40.588;49.684;2023-08-31T02:42:03;101511.84;;;22.20;100.00
60371;BME280;48550;40.588;49.684;2023-08-31T02:44:31;101510.38;;;22.95;100.00
60371;BME280;48550;40.588;49.684;2023-08-31T02:46:57;101516.31;;;23.53;100.00
60371;BME280;48550;40.588;49.684;2023-08-31T02:49:22;101513.03;;;23.70;100.00
60371;BME280;48550;40.588;49.684;2023-08-31T02:51:48;101512.84;;;23.48;100.00
60371;BME280;48550;40.588;49.684;2023-08-31T02:54:15;101514.44;;;23.16;100.00
60371;BME280;48550;40.588;49.684;2023-08-31T02:56:41;101519.56;;;23.04;100.00
60371;BME280;48550;40.588;49.684;2023-08-31T02:59:07;101514.59;;;22.87;100.00
60371;BME280;48550;40.588;49.684;2023-08-31T03:01:33;101515.47;;;23.20;100.00
60371;BME280;48550;40.588;49.684;2023-08-31T03:03:59;101504.06;;;24.52;97.52
60371;BME280;48550;40.588;49.684;2023-08-31T03:06:25;101514.00;;;24.75;93.30
60371;BME280;48550;40.588;49.684;2023-08-31T03:08:51;101510.25;;;24.02;100.00
60371;BME280;48550;40.588;49.684;2023-08-31T03:11:17;101511.28;;;23.60;100.00
60371;BME280;48550;40.588;49.684;2023-08-31T03:13:43;101505.59;;;23.38;100.00
60371;BME280;48550;40.588;49.684;2023-08-31T03:16:08;101500.38;;;23.23;100.00
60371;BME280;48550;40.588;49.684;2023-08-31T03:18:34;101508.25;;;23.10;100.00
60371;BME280;48550;40.588;49.684;2023-08-31T03:21:00;101518.81;;;23.17;100.00
60371;BME280;48550;40.588;49.684;2023-08-31T03:23:26;101518.94;;;23.26;100.00
60371;BME280;48550;40.588;49.684;2023-08-31T03:25:52;101524.44;;;23.26;100.00
60371;BME280;48550;40.588;49.684;2023-08-31T03:28:19;101517.25;;;23.30;100.00
60371;BME280;48550;40.588;49.684;2023-08-31T03:30:44;101530.47;;;23.41;100.00
60371;BME280;48550;40.588;49.684;2023-08-31T03:33:11;101536.97;;;23.45;100.00
60371;BME280;48550;40.588;49.684;2023-08-31T03:35:37;101528.06;;;23.54;100.00
60371;BME280;48550;40.588;49.684;2023-08-31T03:38:03;101523.84;;;23.61;100.00
60371;BME280;48550;40.588;49.684;2023-08-31T03:40:29;101523.78;;;23.66;100.00
60371;BME280;48550;40.588;49.684;2023-08-31T03:42:54;101526.22;;;23.68;100.00
60371;BME280;48550;40.588;49.684;2023-08-31T03:45:20;101524.94;;;23.79;100.00
60371;BME280;48550;40.588;49.684;2023-08-31T03:47:46;101527.28;;;23.86;100.00
60371;BME280;48550;40.588;49.684;2023-08-31T03:50:12;101527.38;;;23.81;100.00
60371;BME280;48550;40.588;49.684;2023-08-31T03:52:38;101526.09;;;23.92;100.00
60371;BME280;48550;40.588;49.684;2023-08-31T03:55:04;101528.31;;;24.03;100.00
60371;BME280;48550;40.588;49.684;2023-08-31T03:57:30;101527.63;;;24.12;100.00
60371;BME280;48550;40.588;49.684;2023-08-31T03:59:56;101529.97;;;24.46;100.00
60371;BME280;48550;40.588;49.684;2023-08-31T04:02:22;101519.38;;;24.80;100.00
60371;BME280;48550;40.588;49.684;2023-08-31T04:04:48;101532.50;;;24.69;100.00
60371;BME280;48550;40.588;49.684;2023-08-31T04:07:14;101523.88;;;24.62;100.00
60371;BME280;48550;40.588;49.684;2023-08-31T04:09:40;101521.25;;;24.44;100.00
60371;BME280;48550;40.588;49.684;2023-08-31T04:12:05;101517.56;;;24.48;100.00
60371;BME280;48550;40.588;49.684;2023-08-31T04:14:31;101521.72;;;24.73;100.00
60371;BME280;48550;40.588;49.684;2023-08-31T04:16:57;101517.88;;;24.74;100.00
60371;BME280;48550;40.588;49.684;2023-08-31T04:19:23;101518.44;;;24.85;100.00
60371;BME280;48550;40.588;49.684;2023-08-31T04:21:49;101520.06;;;24.86;100.00
60371;BME280;48550;40.588;49.684;2023-08-31T04:24:14;101520.94;;;25.09;100.00
60371;BME280;48550;40.588;49.684;2023-08-31T04:26:40;101532.31;;;25.16;100.00
60371;BME280;48550;40.588;49.684;2023-08-31T04:29:06;101527.50;;;25.21;99.22
60371;BME280;48550;40.588;49.684;2023-08-31T04:31:32;101529.59;;;25.38;94.96
60371;BME280;48550;40.588;49.684;2023-08-31T04:33:58;101533.78;;;25.36;96.29
60371;BME280;48550;40.588;49.684;2023-08-31T04:36:24;101541.41;;;25.39;92.64
60371;BME280;48550;40.588;49.684;2023-08-31T04:38:51;101541.34;;;25.52;93.29
60371;BME280;48550;40.588;49.684;2023-08-31T04:41:18;101536.16;;;25.51;90.47
60371;BME280;48550;40.588;49.684;2023-08-31T04:43:44;101534.22;;;25.51;88.63
60371;BME280;48550;40.588;49.684;2023-08-31T04:46:09;101538.13;;;25.59;87.54
60371;BME280;48550;40.588;49.684;2023-08-31T04:48:35;101533.44;;;25.59;85.51
60371;BME280;48550;40.588;49.684;2023-08-31T04:51:05;101537.19;;;25.63;84.73
60371;BME280;48550;40.588;49.684;2023-08-31T04:53:31;101535.56;;;25.85;82.50
60371;BME280;48550;40.588;49.684;2023-08-31T04:55:58;101535.84;;;26.06;78.92
60371;BME280;48550;40.588;49.684;2023-08-31T04:58:23;101544.34;;;26.26;75.86
60371;BME280;48550;40.588;49.684;2023-08-31T05:00:51;101538.00;;;26.57;69.47
60371;BME280;48550;40.588;49.684;2023-08-31T05:03:17;101540.34;;;28.14;60.63
60371;BME280;48550;40.588;49.684;2023-08-31T05:05:43;101543.59;;;29.25;53.46
60371;BME280;48550;40.588;49.684;2023-08-31T05:08:09;101544.69;;;30.84;46.41
60371;BME280;48550;40.588;49.684;2023-08-31T05:10:35;101547.81;;;31.95;44.38
60371;BME280;48550;40.588;49.684;2023-08-31T05:13:01;101553.34;;;32.73;41.14
60371;BME280;48550;40.588;49.684;2023-08-31T05:15:27;101557.16;;;33.39;39.93
60371;BME280;48550;40.588;49.684;2023-08-31T05:17:54;101557.66;;;32.71;40.03
60371;BME280;48550;40.588;49.684;2023-08-31T05:20:20;101554.91;;;32.39;40.70
60371;BME280;48550;40.588;49.684;2023-08-31T05:22:48;101561.19;;;32.36;40.76
60371;BME280;48550;40.588;49.684;2023-08-31T05:25:13;101553.56;;;33.19;39.07
60371;BME280;48550;40.588;49.684;2023-08-31T05:27:39;101564.03;;;32.55;40.74
60371;BME280;48550;40.588;49.684;2023-08-31T05:30:05;101555.16;;;33.01;38.82
60371;BME280;48550;40.588;49.684;2023-08-31T05:32:31;101561.63;;;32.54;39.62
60371;BME280;48550;40.588;49.684;2023-08-31T05:34:57;101565.81;;;32.79;39.08
60371;BME280;48550;40.588;49.684;2023-08-31T05:37:25;101560.50;;;33.29;38.62
60371;BME280;48550;40.588;49.684;2023-08-31T05:39:51;101552.81;;;32.83;38.72
60371;BME280;48550;40.588;49.684;2023-08-31T05:42:17;101561.53;;;33.21;38.67
60371;BME280;48550;40.588;49.684;2023-08-31T05:44:44;101553.47;;;33.15;38.62
60371;BME280;48550;40.588;49.684;2023-08-31T05:47:10;101558.16;;;33.11;38.35
60371;BME280;48550;40.588;49.684;2023-08-31T05:49:36;101559.75;;;32.11;41.28
60371;BME280;48550;40.588;49.684;2023-08-31T05:52:01;101560.66;;;32.15;42.33
60371;BME280;48550;40.588;49.684;2023-08-31T05:54:27;101554.88;;;32.71;40.26
60371;BME280;48550;40.588;49.684;2023-08-31T05:56:53;101565.91;;;31.88;41.90
60371;BME280;48550;40.588;49.684;2023-08-31T05:59:18;101573.81;;;32.81;39.68
60371;BME280;48550;40.588;49.684;2023-08-31T06:01:45;101563.56;;;31.90;41.70
60371;BME280;48550;40.588;49.684;2023-08-31T06:04:10;101565.75;;;33.72;38.45
60371;BME280;48550;40.588;49.684;2023-08-31T06:06:36;101566.94;;;33.71;37.55
60371;BME280;48550;40.588;49.684;2023-08-31T06:09:03;101572.09;;;33.31;38.24
60371;BME280;48550;40.588;49.684;2023-08-31T06:11:30;101566.97;;;33.33;37.97
60371;BME280;48550;40.588;49.684;2023-08-31T06:13:55;101562.41;;;32.86;39.63
60371;BME280;48550;40.588;49.684;2023-08-31T06:16:21;101570.72;;;32.86;39.52
60371;BME280;48550;40.588;49.684;2023-08-31T06:18:48;101564.69;;;34.00;36.97
60371;BME280;48550;40.588;49.684;2023-08-31T06:21:13;101563.47;;;33.78;36.84
60371;BME280;48550;40.588;49.684;2023-08-31T06:23:39;101571.84;;;34.01;37.14
60371;BME280;48550;40.588;49.684;2023-08-31T06:26:05;101564.50;;;33.89;36.91
60371;BME280;48550;40.588;49.684;2023-08-31T06:28:31;101572.47;;;33.48;37.71
60371;BME280;48550;40.588;49.684;2023-08-31T06:30:56;101560.06;;;32.88;39.14
60371;BME280;48550;40.588;49.684;2023-08-31T06:33:22;101564.25;;;33.98;36.94
60371;BME280;48550;40.588;49.684;2023-08-31T06:35:48;101564.06;;;34.59;35.51
60371;BME280;48550;40.588;49.684;2023-08-31T06:38:17;101570.28;;;32.84;38.42
60371;BME280;48550;40.588;49.684;2023-08-31T06:40:43;101561.97;;;33.03;38.72
60371;BME280;48550;40.588;49.684;2023-08-31T06:43:11;101567.72;;;33.49;38.39
60371;BME280;48550;40.588;49.684;2023-08-31T06:45:37;101560.16;;;32.60;39.73
60371;BME280;48550;40.588;49.684;2023-08-31T06:48:03;101565.72;;;33.92;36.73
60371;BME280;48550;40.588;49.684;2023-08-31T06:50:29;101567.03;;;34.44;35.93
60371;BME280;48550;40.588;49.684;2023-08-31T06:52:55;101567.53;;;33.42;37.28
60371;BME280;48550;40.588;49.684;2023-08-31T06:55:21;101566.53;;;34.15;36.69
60371;BME280;48550;40.588;49.684;2023-08-31T06:57:47;101565.19;;;33.83;36.24
60371;BME280;48550;40.588;49.684;2023-08-31T07:00:12;101557.69;;;34.09;35.96
60371;BME280;48550;40.588;49.684;2023-08-31T07:02:40;101556.66;;;33.75;36.63
60371;BME280;48550;40.588;49.684;2023-08-31T07:05:07;101551.13;;;34.74;35.12
60371;BME280;48550;40.588;49.684;2023-08-31T07:07:33;101549.75;;;34.61;35.35
60371;BME280;48550;40.588;49.684;2023-08-31T07:09:58;101549.06;;;34.18;35.72
60371;BME280;48550;40.588;49.684;2023-08-31T07:12:25;101550.06;;;35.42;34.02
60371;BME280;48550;40.588;49.684;2023-08-31T07:14:50;101548.94;;;34.87;34.53
60371;BME280;48550;40.588;49.684;2023-08-31T07:17:19;101548.94;;;33.27;36.69
60371;BME280;48550;40.588;49.684;2023-08-31T07:19:45;101535.59;;;33.97;36.75
60371;BME280;48550;40.588;49.684;2023-08-31T07:22:11;101534.69;;;33.70;37.38
60371;BME280;48550;40.588;49.684;2023-08-31T07:24:37;101543.38;;;34.11;36.66
60371;BME280;48550;40.588;49.684;2023-08-31T07:27:03;101535.50;;;33.71;37.31
60371;BME280;48550;40.588;49.684;2023-08-31T07:29:30;101544.97;;;34.12;36.99
60371;BME280;48550;40.588;49.684;2023-08-31T07:31:56;101534.81;;;33.55;37.65
60371;BME280;48550;40.588;49.684;2023-08-31T07:34:22;101547.41;;;32.24;41.11
60371;BME280;48550;40.588;49.684;2023-08-31T07:36:48;101532.75;;;31.36;44.21
60371;BME280;48550;40.588;49.684;2023-08-31T07:39:14;101521.88;;;31.03;45.76
60371;BME280;48550;40.588;49.684;2023-08-31T07:41:43;101531.44;;;30.53;47.44
60371;BME280;48550;40.588;49.684;2023-08-31T07:44:09;101521.63;;;30.56;47.56
60371;BME280;48550;40.588;49.684;2023-08-31T07:46:34;101523.34;;;30.12;49.75
60371;BME280;48550;40.588;49.684;2023-08-31T07:49:00;101518.75;;;30.03;50.67
60371;BME280;48550;40.588;49.684;2023-08-31T07:51:26;101516.91;;;30.20;50.37
60371;BME280;48550;40.588;49.684;2023-08-31T07:53:52;101507.78;;;30.56;49.12
60371;BME280;48550;40.588;49.684;2023-08-31T07:56:18;101515.63;;;30.66;48.96
60371;BME280;48550;40.588;49.684;2023-08-31T07:58:44;101511.66;;;30.79;48.21
60371;BME280;48550;40.588;49.684;2023-08-31T08:01:09;101511.59;;;30.51;49.22
60371;BME280;48550;40.588;49.684;2023-08-31T08:03:35;101513.91;;;30.61;49.20
60371;BME280;48550;40.588;49.684;2023-08-31T08:06:01;101515.81;;;30.85;48.42
60371;BME280;48550;40.588;49.684;2023-08-31T08:08:26;101507.41;;;30.45;50.58
60371;BME280;48550;40.588;49.684;2023-08-31T08:10:53;101510.88;;;30.30;50.78
60371;BME280;48550;40.588;49.684;2023-08-31T08:13:19;101515.28;;;30.67;49.89
60371;BME280;48550;40.588;49.684;2023-08-31T08:15:47;101509.75;;;30.67;51.08
60371;BME280;48550;40.588;49.684;2023-08-31T08:18:13;101505.34;;;30.54;50.39
60371;BME280;48550;40.588;49.684;2023-08-31T08:20:39;101508.34;;;30.25;50.98
60371;BME280;48550;40.588;49.684;2023-08-31T08:23:07;101513.09;;;30.24;53.05
60371;BME280;48550;40.588;49.684;2023-08-31T08:25:33;101509.63;;;30.40;50.84
60371;BME280;48550;40.588;49.684;2023-08-31T08:27:58;101498.19;;;30.41;51.43
60371;BME280;48550;40.588;49.684;2023-08-31T08:30:24;101494.03;;;30.35;52.50
60371;BME280;48550;40.588;49.684;2023-08-31T08:32:50;101506.38;;;30.38;52.54
60371;BME280;48550;40.588;49.684;2023-08-31T08:35:15;101498.06;;;30.38;51.80
60371;BME280;48550;40.588;49.684;2023-08-31T08:37:41;101497.25;;;30.00;53.91
60371;BME280;48550;40.588;49.684;2023-08-31T08:40:07;101490.38;;;30.07;54.04
60371;BME280;48550;40.588;49.684;2023-08-31T08:42:39;101493.13;;;30.07;53.46
60371;BME280;48550;40.588;49.684;2023-08-31T08:45:11;101488.16;;;30.00;54.38
60371;BME280;48550;40.588;49.684;2023-08-31T08:47:42;101494.97;;;30.02;53.87
60371;BME280;48550;40.588;49.684;2023-08-31T08:50:09;101491.72;;;29.76;54.02
60371;BME280;48550;40.588;49.684;2023-08-31T08:52:35;101492.13;;;29.66;55.91
60371;BME280;48550;40.588;49.684;2023-08-31T08:55:01;101495.56;;;29.51;54.62
60371;BME280;48550;40.588;49.684;2023-08-31T08:57:30;101498.19;;;29.47;55.84
60371;BME280;48550;40.588;49.684;2023-08-31T08:59:57;101499.84;;;29.60;55.04
60371;BME280;48550;40.588;49.684;2023-08-31T09:02:23;101500.56;;;29.36;56.09
60371;BME280;48550;40.588;49.684;2023-08-31T09:04:49;101494.88;;;29.66;55.19
60371;BME280;48550;40.588;49.684;2023-08-31T09:07:20;101502.16;;;29.37;58.20
60371;BME280;48550;40.588;49.684;2023-08-31T09:09:53;101505.94;;;29.54;57.65
60371;BME280;48550;40.588;49.684;2023-08-31T09:12:23;101496.22;;;29.48;58.08
60371;BME280;48550;40.588;49.684;2023-08-31T09:15:03;101500.47;;;29.78;57.50
60371;BME280;48550;40.588;49.684;2023-08-31T09:17:42;101500.72;;;29.85;57.04
60371;BME280;48550;40.588;49.684;2023-08-31T09:20:11;101507.41;;;29.96;57.17
60371;BME280;48550;40.588;49.684;2023-08-31T09:22:36;101496.22;;;29.93;55.93
60371;BME280;48550;40.588;49.684;2023-08-31T09:25:08;101502.22;;;29.83;57.10
60371;BME280;48550;40.588;49.684;2023-08-31T09:27:37;101490.84;;;30.09;56.89
60371;BME280;48550;40.588;49.684;2023-08-31T09:30:06;101491.72;;;29.76;57.30
60371;BME280;48550;40.588;49.684;2023-08-31T09:32:32;101497.19;;;29.64;59.15
60371;BME280;48550;40.588;49.684;2023-08-31T09:34:58;101491.03;;;29.91;57.83
60371;BME280;48550;40.588;49.684;2023-08-31T09:37:28;101483.31;;;29.97;57.41
60371;BME280;48550;40.588;49.684;2023-08-31T09:39:53;101485.91;;;29.69;57.97
60371;BME280;48550;40.588;49.684;2023-08-31T09:42:20;101486.81;;;29.61;59.86
60371;BME280;48550;40.588;49.684;2023-08-31T09:44:49;101484.97;;;29.65;58.82
60371;BME280;48550;40.588;49.684;2023-08-31T09:47:16;101483.41;;;29.76;59.19
60371;BME280;48550;40.588;49.684;2023-08-31T09:49:43;101485.41;;;29.55;59.28
60371;BME280;48550;40.588;49.684;2023-08-31T09:52:09;101490.03;;;29.51;60.17
60371;BME280;48550;40.588;49.684;2023-08-31T09:54:36;101486.81;;;29.61;60.14
60371;BME280;48550;40.588;49.684;2023-08-31T09:57:03;101486.94;;;29.64;61.73
60371;BME280;48550;40.588;49.684;2023-08-31T09:59:30;101485.91;;;29.69;59.76
60371;BME280;48550;40.588;49.684;2023-08-31T10:01:57;101477.81;;;29.52;62.80
60371;BME280;48550;40.588;49.684;2023-08-31T10:04:24;101482.66;;;29.55;62.49
60371;BME280;48550;40.588;49.684;2023-08-31T10:06:50;101490.13;;;29.54;61.89
60371;BME280;48550;40.588;49.684;2023-08-31T10:09:17;101476.81;;;29.35;63.19
60371;BME280;48550;40.588;49.684;2023-08-31T10:11:43;101470.31;;;29.19;62.87
60371;BME280;48550;40.588;49.684;2023-08-31T10:14:10;101480.25;;;29.32;64.40
60371;BME280;48550;40.588;49.684;2023-08-31T10:16:39;101483.03;;;29.32;63.35
60371;BME280;48550;40.588;49.684;2023-08-31T10:19:05;101480.72;;;29.34;64.57
60371;BME280;48550;40.588;49.684;2023-08-31T10:21:31;101481.97;;;29.25;66.24
60371;BME280;48550;40.588;49.684;2023-08-31T10:23:57;101471.34;;;29.48;66.84
60371;BME280;48550;40.588;49.684;2023-08-31T10:26:25;101474.13;;;29.27;66.40
60371;BME280;48550;40.588;49.684;2023-08-31T10:28:51;101475.63;;;29.24;66.33
60371;BME280;48550;40.588;49.684;2023-08-31T10:31:18;101462.03;;;28.98;67.99
60371;BME280;48550;40.588;49.684;2023-08-31T10:34:00;101468.53;;;29.02;68.68
60371;BME280;48550;40.588;49.684;2023-08-31T10:36:45;101472.81;;;29.12;69.57
60371;BME280;48550;40.588;49.684;2023-08-31T10:41:39;101459.16;;;29.28;68.44
60371;BME280;48550;40.588;49.684;2023-08-31T10:44:22;101469.44;;;29.39;66.42
60371;BME280;48550;40.588;49.684;2023-08-31T10:46:49;101464.00;;;29.31;67.17
60371;BME280;48550;40.588;49.684;2023-08-31T10:49:19;101463.63;;;29.20;68.38
60371;BME280;48550;40.588;49.684;2023-08-31T10:52:16;101468.66;;;29.06;69.06
60371;BME280;48550;40.588;49.684;2023-08-31T10:54:43;101459.81;;;29.13;68.67
60371;BME280;48550;40.588;49.684;2023-08-31T10:57:08;101459.84;;;29.25;69.37
60371;BME280;48550;40.588;49.684;2023-08-31T10:59:51;101460.19;;;29.23;67.76
60371;BME280;48550;40.588;49.684;2023-08-31T11:02:46;101463.34;;;29.01;70.51
60371;BME280;48550;40.588;49.684;2023-08-31T11:05:18;101462.91;;;29.11;69.99
60371;BME280;48550;40.588;49.684;2023-08-31T11:07:45;101463.94;;;29.06;69.86
60371;BME280;48550;40.588;49.684;2023-08-31T11:10:19;101452.72;;;28.82;71.06
60371;BME280;48550;40.588;49.684;2023-08-31T11:12:46;101458.47;;;28.98;72.31
60371;BME280;48550;40.588;49.684;2023-08-31T11:15:14;101463.63;;;29.20;71.48
60371;BME280;48550;40.588;49.684;2023-08-31T11:17:41;101464.53;;;29.12;71.08
60371;BME280;48550;40.588;49.684;2023-08-31T11:20:09;101456.28;;;29.24;69.95
60371;BME280;48550;40.588;49.684;2023-08-31T11:22:39;101452.19;;;29.09;72.45
60371;BME280;48550;40.588;49.684;2023-08-31T11:25:08;101457.84;;;29.13;71.35
60371;BME280;48550;40.588;49.684;2023-08-31T11:27:34;101454.06;;;28.97;73.13
60371;BME280;48550;40.588;49.684;2023-08-31T11:30:00;101452.19;;;28.89;72.83
60371;BME280;48550;40.588;49.684;2023-08-31T11:32:25;101452.06;;;28.85;73.35
60371;BME280;48550;40.588;49.684;2023-08-31T11:34:51;101440.47;;;28.92;73.58
60371;BME280;48550;40.588;49.684;2023-08-31T11:37:17;101443.44;;;29.07;72.70
60371;BME280;48550;40.588;49.684;2023-08-31T11:39:52;101447.53;;;28.80;72.91
60371;BME280;48550;40.588;49.684;2023-08-31T11:42:19;101432.78;;;28.76;76.56
60371;BME280;48550;40.588;49.684;2023-08-31T11:44:50;101431.13;;;28.84;75.63
60371;BME280;48550;40.588;49.684;2023-08-31T11:47:17;101428.75;;;28.95;75.84
60371;BME280;48550;40.588;49.684;2023-08-31T11:49:43;101433.88;;;29.05;74.66
60371;BME280;48550;40.588;49.684;2023-08-31T11:52:10;101432.50;;;29.11;75.63
60371;BME280;48550;40.588;49.684;2023-08-31T11:54:38;101435.50;;;29.06;75.00
60371;BME280;48550;40.588;49.684;2023-08-31T11:57:07;101432.53;;;28.90;75.34
60371;BME280;48550;40.588;49.684;2023-08-31T11:59:38;101431.50;;;28.95;76.92
60371;BME280;48550;40.588;49.684;2023-08-31T12:02:08;101431.72;;;28.90;75.71
60371;BME280;48550;40.588;49.684;2023-08-31T12:04:41;101421.34;;;28.87;74.19
60371;BME280;48550;40.588;49.684;2023-08-31T12:07:09;101429.69;;;28.78;78.16
60371;BME280;48550;40.588;49.684;2023-08-31T12:09:35;101417.59;;;28.83;78.86
60371;BME280;48550;40.588;49.684;2023-08-31T12:12:01;101422.16;;;28.87;77.49
60371;BME280;48550;40.588;49.684;2023-08-31T12:14:27;101427.25;;;28.76;76.31
60371;BME280;48550;40.588;49.684;2023-08-31T12:17:01;101416.09;;;28.52;79.06
60371;BME280;48550;40.588;49.684;2023-08-31T12:19:28;101419.19;;;28.51;80.03
60371;BME280;48550;40.588;49.684;2023-08-31T12:21:55;101419.31;;;28.54;81.22
60371;BME280;48550;40.588;49.684;2023-08-31T12:24:21;101432.94;;;28.38;83.68
60371;BME280;48550;40.588;49.684;2023-08-31T12:26:49;101418.31;;;28.38;84.28
60371;BME280;48550;40.588;49.684;2023-08-31T12:29:15;101417.16;;;28.39;84.91
60371;BME280;48550;40.588;49.684;2023-08-31T12:31:40;101425.25;;;28.44;84.26
60371;BME280;48550;40.588;49.684;2023-08-31T12:34:06;101431.03;;;28.51;83.64
60371;BME280;48550;40.588;49.684;2023-08-31T12:36:36;101422.41;;;28.32;85.38
60371;BME280;48550;40.588;49.684;2023-08-31T12:39:07;101417.56;;;28.29;87.73
60371;BME280;48550;40.588;49.684;2023-08-31T12:41:38;101423.13;;;28.11;91.29
60371;BME280;48550;40.588;49.684;2023-08-31T12:44:05;101418.63;;;28.07;97.24
60371;BME280;48550;40.588;49.684;2023-08-31T12:46:31;101419.47;;;27.99;100.00
60371;BME280;48550;40.588;49.684;2023-08-31T12:48:58;101428.19;;;27.80;100.00